createdAt,value
2022-12-19T00:02:36.153Z,22.52
2022-12-19T00:07:57.145Z,19.63
2022-12-19T00:13:19.584Z,13.98
2022-12-19T00:18:41.730Z,19.58
2022-12-19T00:24:13.138Z,17.23
2022-12-19T00:29:41.648Z,19.80
2022-12-19T00:35:01.928Z,13.07
2022-12-19T00:40:22.442Z,13.80
2022-12-19T00:45:44.908Z,11.68
2022-12-19T00:51:12.679Z,20.05
2022-12-19T00:56:37.382Z,15.13
2022-12-19T01:02:00.515Z,17.45
2022-12-19T01:07:23.998Z,12.37
2022-12-19T01:12:45.860Z,14.43
2022-12-19T01:18:10.189Z,11.15
2022-12-19T01:23:30.812Z,16.70
2022-12-19T01:28:51.152Z,12.57
2022-12-19T01:34:12.014Z,17.70
2022-12-19T01:39:32.482Z,16.13
2022-12-19T01:45:15.069Z,13.90
2022-12-19T01:51:01.635Z,19.73
2022-12-19T01:56:28.706Z,23.17
2022-12-19T02:01:54.815Z,11.85
2022-12-19T02:07:18.542Z,14.73
2022-12-19T02:12:42.775Z,17.50
2022-12-19T02:18:43.287Z,19.60
2022-12-19T02:24:25.576Z,11.15
2022-12-19T02:29:58.539Z,15.27
2022-12-19T02:35:44.064Z,13.68
2022-12-19T02:41:14.989Z,12.15
2022-12-19T02:46:37.529Z,16.75
2022-12-19T02:51:58.308Z,11.05
2022-12-19T02:57:23.978Z,14.20
2022-12-19T03:03:05.929Z,16.85
2022-12-19T03:08:38.095Z,21.00
2022-12-19T03:14:04.503Z,22.88
2022-12-19T03:19:25.120Z,16.98
2022-12-19T03:24:45.837Z,17.73
2022-12-19T03:30:10.308Z,20.10
2022-12-19T03:35:35.420Z,17.63
2022-12-19T03:40:57.508Z,22.65
2022-12-19T03:46:26.048Z,25.55
2022-12-19T03:51:59.191Z,19.08
2022-12-19T03:57:28.912Z,20.15
2022-12-19T04:02:53.063Z,19.58
2022-12-19T04:08:14.355Z,18.55
2022-12-19T04:13:44.776Z,20.23
2022-12-19T04:19:14.748Z,19.08
2022-12-19T04:24:40.593Z,28.55
2022-12-19T04:30:02.227Z,24.52
2022-12-19T04:35:23.064Z,24.48
2022-12-19T04:40:44.176Z,18.10
2022-12-19T04:46:04.576Z,17.55
2022-12-19T04:51:25.291Z,22.98
2022-12-19T04:56:45.501Z,20.25
2022-12-19T05:02:06.328Z,31.58
2022-12-19T05:07:26.823Z,23.60
2022-12-19T05:12:47.045Z,24.10
2022-12-19T05:18:07.802Z,33.50
2022-12-19T05:23:28.741Z,27.10
2022-12-19T05:28:49.901Z,23.67
2022-12-19T05:34:10.979Z,20.42
2022-12-19T05:39:31.703Z,19.77
2022-12-19T05:44:52.095Z,26.48
2022-12-19T05:50:17.076Z,30.30
2022-12-19T05:55:44.934Z,21.92
2022-12-19T06:01:11.786Z,29.70
2022-12-19T06:06:32.349Z,33.78
2022-12-19T06:11:52.793Z,32.75
2022-12-19T06:17:13.273Z,30.80
2022-12-19T06:22:34.367Z,30.95
2022-12-19T06:27:54.894Z,34.60
2022-12-19T06:33:15.465Z,28.65
2022-12-19T06:38:35.951Z,31.00
2022-12-19T06:43:58.762Z,33.85
2022-12-19T06:49:19.683Z,36.13
2022-12-19T06:54:40.330Z,36.00
2022-12-19T07:00:01.218Z,52.80
2022-12-19T07:05:22.047Z,32.10
2022-12-19T07:10:42.775Z,27.52
2022-12-19T07:16:05.154Z,43.13
2022-12-19T07:21:25.914Z,37.63
2022-12-19T07:26:47.494Z,49.00
2022-12-19T07:32:07.765Z,44.20
2022-12-19T07:37:28.449Z,47.75
2022-12-19T07:42:49.143Z,38.10
2022-12-19T07:48:10.257Z,40.33
2022-12-19T07:53:31.281Z,36.22
2022-12-19T07:58:52.329Z,41.60
2022-12-19T08:04:13.355Z,35.88
2022-12-19T08:09:33.732Z,36.95
2022-12-19T08:14:57.166Z,29.13
2022-12-19T08:20:17.904Z,41.17
2022-12-19T08:25:38.799Z,43.72
2022-12-19T08:31:20.248Z,48.30
2022-12-19T08:36:40.879Z,42.53
2022-12-19T08:42:01.483Z,37.17
2022-12-19T08:47:21.784Z,32.50
2022-12-19T08:52:42.481Z,39.08
2022-12-19T08:58:03.038Z,48.97
2022-12-19T09:03:24.020Z,36.20
2022-12-19T09:08:46.858Z,41.13
2022-12-19T09:14:07.829Z,36.60
2022-12-19T09:19:28.683Z,49.17
2022-12-19T09:24:49.654Z,50.83
2022-12-19T09:30:12.706Z,44.10
2022-12-19T09:35:33.265Z,55.70
2022-12-19T09:40:57.918Z,49.28
2022-12-19T09:46:20.587Z,38.40
2022-12-19T09:51:49.278Z,42.38
2022-12-19T09:57:17.816Z,41.47
2022-12-19T10:02:50.779Z,32.83
2022-12-19T10:08:18.648Z,35.65
2022-12-19T10:13:51.528Z,36.03
2022-12-19T10:19:27.535Z,34.28
2022-12-19T10:25:15.957Z,31.08
2022-12-19T10:30:44.775Z,22.25
2022-12-19T10:36:10.777Z,36.13
2022-12-19T10:41:32.764Z,33.42
2022-12-19T10:46:55.097Z,38.55
2022-12-19T10:52:16.138Z,23.98
2022-12-19T10:57:36.801Z,28.65
2022-12-19T11:03:13.695Z,30.13
2022-12-19T11:08:39.660Z,32.20
2022-12-19T11:18:54.283Z,29.77
2022-12-19T11:29:27.583Z,24.35
2022-12-19T11:30:08.657Z,26.08
2022-12-19T11:37:16.306Z,27.83
2022-12-19T11:43:10.915Z,25.08
2022-12-19T11:48:41.979Z,26.95
2022-12-19T11:54:22.217Z,26.55
2022-12-19T11:59:42.793Z,32.83
2022-12-19T12:05:33.408Z,27.48
2022-12-19T12:17:03.679Z,27.83
2022-12-19T12:31:00.949Z,30.40
2022-12-19T12:31:46.583Z,29.63
2022-12-19T12:32:02.752Z,32.05
2022-12-19T12:41:06.734Z,31.73
2022-12-19T12:46:34.849Z,30.90
2022-12-19T12:51:55.997Z,24.15
2022-12-19T12:57:20.616Z,39.40
2022-12-19T13:02:46.482Z,21.70
2022-12-19T13:08:45.368Z,31.88
2022-12-19T13:14:34.428Z,47.05
2022-12-19T13:19:58.123Z,44.83
2022-12-19T13:25:27.315Z,33.95
2022-12-19T13:31:19.771Z,41.80
2022-12-19T13:39:51.157Z,41.00
2022-12-19T13:42:55.519Z,34.00
2022-12-19T13:48:40.317Z,36.28
2022-12-19T13:54:01.210Z,31.40
2022-12-19T13:59:24.962Z,40.70
2022-12-19T14:04:45.822Z,45.70
2022-12-19T14:11:37.744Z,28.77
2022-12-19T14:16:00.558Z,35.28
2022-12-19T14:22:08.919Z,33.53
2022-12-19T14:28:20.372Z,32.22
2022-12-19T14:33:39.297Z,25.52
2022-12-19T14:39:24.703Z,34.80
2022-12-19T14:52:11.542Z,21.10
2022-12-19T14:54:23.273Z,34.65
2022-12-19T14:56:52.075Z,32.30
2022-12-19T15:02:05.739Z,23.92
2022-12-19T15:07:31.873Z,35.03
2022-12-19T15:14:50.872Z,40.20
2022-12-19T15:19:01.881Z,36.72
2022-12-19T15:24:22.348Z,36.45
2022-12-19T15:29:44.262Z,38.60
2022-12-19T15:35:17.305Z,31.25
2022-12-19T15:40:40.502Z,34.03
2022-12-19T15:46:01.364Z,35.03
2022-12-19T15:51:22.034Z,42.75
2022-12-19T15:56:46.725Z,35.15
2022-12-19T16:02:20.247Z,36.22
2022-12-19T16:07:40.793Z,29.88
2022-12-19T16:13:01.601Z,39.97
2022-12-19T16:18:22.212Z,31.88
2022-12-19T16:23:43.051Z,42.60
2022-12-19T16:29:04.850Z,38.05
2022-12-19T16:34:25.521Z,44.40
2022-12-19T16:39:46.146Z,46.55
2022-12-19T16:45:23.516Z,41.08
2022-12-19T16:50:44.355Z,31.23
2022-12-19T16:56:20.810Z,40.45
2022-12-19T17:01:44.005Z,38.35
2022-12-19T17:07:10.125Z,29.92
2022-12-19T17:12:30.612Z,34.80
2022-12-19T17:17:53.107Z,24.67
2022-12-19T17:23:22.471Z,27.60
2022-12-19T17:28:43.020Z,34.42
2022-12-19T17:34:06.465Z,47.28
2022-12-19T17:39:29.232Z,38.97
2022-12-19T17:44:50.274Z,29.73
2022-12-19T17:50:23.653Z,50.22
2022-12-19T17:55:44.194Z,33.15
2022-12-19T18:01:04.514Z,36.25
2022-12-19T18:06:25.255Z,28.63
2022-12-19T18:11:47.449Z,23.70
2022-12-19T18:17:11.770Z,36.92
2022-12-19T18:22:32.234Z,35.55
2022-12-19T18:27:53.155Z,24.67
2022-12-19T18:33:21.355Z,31.13
2022-12-19T18:38:42.272Z,46.85
2022-12-19T18:44:03.023Z,44.60
2022-12-19T18:49:23.657Z,52.78
2022-12-19T18:54:44.341Z,32.38
2022-12-19T19:00:05.614Z,43.13
2022-12-19T19:05:29.061Z,41.25
2022-12-19T19:10:50.927Z,30.77
2022-12-19T19:16:22.377Z,36.30
2022-12-19T19:21:42.722Z,44.97
2022-12-19T19:27:03.666Z,57.85
2022-12-19T19:32:25.791Z,45.75
2022-12-19T19:37:50.069Z,44.88
2022-12-19T19:48:31.631Z,52.03
2022-12-19T19:53:52.072Z,42.22
2022-12-19T19:59:12.543Z,46.75
2022-12-19T20:04:33.197Z,41.13
2022-12-19T20:09:53.897Z,41.92
2022-12-19T20:15:14.691Z,40.97
2022-12-19T20:20:35.461Z,43.65
2022-12-19T20:26:00.881Z,44.53
2022-12-19T20:31:23.695Z,41.80
2022-12-19T20:36:44.346Z,40.97
2022-12-19T20:42:06.528Z,40.67
2022-12-19T20:47:27.157Z,36.22
2022-12-19T20:52:47.611Z,34.33
2022-12-19T20:58:08.246Z,34.15
2022-12-19T21:03:30.231Z,36.47
2022-12-19T21:08:51.440Z,31.52
2022-12-19T21:14:12.472Z,46.78
2022-12-19T21:19:33.444Z,37.65
2022-12-19T21:24:53.961Z,45.65
2022-12-19T21:30:15.544Z,45.58
2022-12-19T21:35:38.138Z,54.80
2022-12-19T21:41:02.575Z,41.17
2022-12-19T21:46:25.312Z,35.25
2022-12-19T21:51:45.645Z,39.92
2022-12-19T21:57:06.270Z,33.42
2022-12-19T22:02:27.068Z,35.80
2022-12-19T22:07:47.930Z,24.58
2022-12-19T22:13:08.645Z,42.92
2022-12-19T22:18:29.252Z,44.22
2022-12-19T22:23:50.546Z,34.17
2022-12-19T22:29:16.468Z,43.03
2022-12-19T22:34:37.499Z,36.70
2022-12-19T22:40:00.220Z,32.83
2022-12-19T22:45:21.013Z,42.33
2022-12-19T22:50:46.932Z,37.72
2022-12-19T22:56:12.917Z,37.42
2022-12-19T23:01:39.499Z,39.03
2022-12-19T23:07:00.285Z,27.90
2022-12-19T23:12:20.820Z,35.75
2022-12-19T23:17:41.519Z,39.20
2022-12-19T23:23:02.045Z,33.97
2022-12-19T23:28:22.363Z,18.98
2022-12-19T23:33:43.083Z,25.45
2022-12-19T23:39:04.214Z,31.17
2022-12-19T23:44:24.603Z,24.58
2022-12-19T23:49:45.118Z,31.33
2022-12-19T23:55:06.512Z,31.90
